Time;durP1;ratioP1;P1;durP2;ratioP2;P2;SDS_P1;SDS_P2;PMS_P1;PMS_P2;Temp;Humidity;BMP_temperature;BMP_pressure;BME280_temperature;BME280_humidity;BME280_pressure;Samples;Min_cycle;Max_cycle;Signal;HPM_P1;HPM_P2
2023/06/11 00:01:29;;;;;;;;;;;;;;;5.05;100.00;99385.38;6149764;23;19923;-87
2023/06/11 00:03:55;;;;;;;;;;;;;;;5.01;100.00;99378.47;6183315;23;19959;-88
2023/06/11 00:06:22;;;;;;;;;;;;;;;5.54;100.00;99388.44;6158886;23;19920;-90
2023/06/11 00:08:48;;;;;;;;;;;;;;;5.86;100.00;99390.13;6187189;23;19916;-88
2023/06/11 00:11:14;;;;;;;;;;;;;;;6.05;100.00;99392.19;6183592;23;19947;-85
2023/06/11 00:13:40;;;;;;;;;;;;;;;6.15;100.00;99385.75;6184353;23;19950;-82
2023/06/11 00:16:06;;;;;;;;;;;;;;;6.30;100.00;99392.31;6183547;23;19916;-87
2023/06/11 00:18:31;;;;;;;;;;;;;;;6.33;100.00;99397.47;6158827;23;19912;-86
2023/06/11 00:20:58;;;;;;;;;;;;;;;6.41;100.00;99391.97;6158273;23;19991;-83
2023/06/11 00:23:23;;;;;;;;;;;;;;;6.40;100.00;99384.97;6183424;23;20283;-87
2023/06/11 00:25:48;;;;;;;;;;;;;;;6.46;100.00;99388.28;6185414;23;19908;-87
2023/06/11 00:28:14;;;;;;;;;;;;;;;6.52;100.00;99387.22;6185556;23;19912;-88
2023/06/11 00:30:41;;;;;;;;;;;;;;;6.57;100.00;99387.91;6158133;23;20177;-84
2023/06/11 00:33:06;;;;;;;;;;;;;;;6.53;100.00;99384.53;6185039;23;19913;-86
2023/06/11 00:35:31;;;;;;;;;;;;;;;6.59;100.00;99380.84;6158854;23;19970;-85
2023/06/11 00:37:57;;;;;;;;;;;;;;;6.65;100.00;99396.47;6148275;23;19913;-87
2023/06/11 00:40:23;;;;;;;;;;;;;;;6.71;100.00;99382.22;6158879;23;19916;-87
2023/06/11 00:42:50;;;;;;;;;;;;;;;6.65;100.00;99379.78;6158380;23;19913;-88
2023/06/11 00:45:16;;;;;;;;;;;;;;;6.73;100.00;99377.75;6157379;23;19916;-88
2023/06/11 00:47:41;;;;;;;;;;;;;;;6.70;100.00;99373.47;6159973;23;19924;-82
2023/06/11 00:50:08;;;;;;;;;;;;;;;6.72;100.00;99371.63;6185599;23;19912;-87
2023/06/11 00:52:33;;;;;;;;;;;;;;;6.72;100.00;99376.91;6157500;23;20317;-87
2023/06/11 00:54:59;;;;;;;;;;;;;;;6.73;100.00;99381.25;6184777;23;19966;-84
2023/06/11 00:57:24;;;;;;;;;;;;;;;6.73;100.00;99385.66;6159295;23;19912;-90
2023/06/11 00:59:53;;;;;;;;;;;;;;;6.73;100.00;99383.91;6182934;23;19919;-91
2023/06/11 08:43:41;;;;;;;;;;;;;;;7.51;100.00;99498.03;6121110;23;19935;-86
2023/06/11 08:46:12;;;;;;;;;;;;;;;7.68;100.00;99508.00;6099869;23;19925;-86
2023/06/11 08:48:39;;;;;;;;;;;;;;;7.68;100.00;99494.81;6124551;23;20355;-86
2023/06/11 08:51:07;;;;;;;;;;;;;;;7.56;100.00;99484.72;6100073;23;19913;-85
2023/06/11 08:53:32;;;;;;;;;;;;;;;7.57;100.00;99496.97;6100402;23;19948;-87
2023/06/11 08:55:58;;;;;;;;;;;;;;;7.54;100.00;99490.03;6124394;23;20152;-83
2023/06/11 08:58:24;;;;;;;;;;;;;;;7.50;100.00;99484.91;6099709;23;19924;-84
2023/06/11 09:00:49;;;;;;;;;;;;;;;7.69;100.00;99491.28;6125885;23;19964;-84
2023/06/11 09:03:15;;;;;;;;;;;;;;;7.77;100.00;99486.59;6124298;23;19948;-83
2023/06/11 09:05:41;;;;;;;;;;;;;;;7.75;100.00;99488.41;6124316;23;19968;-84
2023/06/11 09:08:09;;;;;;;;;;;;;;;7.68;100.00;99479.00;6124301;23;19920;-84
2023/06/11 09:10:46;;;;;;;;;;;;;;;7.63;100.00;99491.50;6125697;23;20289;-83
2023/06/11 09:13:11;;;;;;;;;;;;;;;7.62;100.00;99480.06;6125648;23;20329;-83
2023/06/11 09:15:38;;;;;;;;;;;;;;;7.68;100.00;99481.63;6119910;23;19988;-83
2023/06/11 09:18:03;;;;;;;;;;;;;;;7.62;100.00;99479.22;6125729;23;19988;-83
2023/06/11 09:20:30;;;;;;;;;;;;;;;7.58;100.00;99472.34;6125683;23;20020;-88
2023/06/11 09:22:56;;;;;;;;;;;;;;;7.57;100.00;99476.75;6124470;23;19943;-85
2023/06/11 09:25:21;;;;;;;;;;;;;;;7.57;100.00;99478.53;6124469;23;19995;-84
2023/06/11 09:27:47;;;;;;;;;;;;;;;7.58;100.00;99482.91;6122445;23;19920;-86
2023/06/11 09:30:16;;;;;;;;;;;;;;;7.56;100.00;99475.03;6124461;23;19920;-85
2023/06/11 09:32:42;;;;;;;;;;;;;;;7.58;100.00;99477.63;6124589;23;19924;-85
2023/06/11 09:35:08;;;;;;;;;;;;;;;7.55;100.00;99483.00;6123899;23;19913;-85
2023/06/11 09:37:41;;;;;;;;;;;;;;;7.60;100.00;99491.59;6123993;23;19913;-85
2023/06/11 09:40:08;;;;;;;;;;;;;;;7.54;100.00;99483.91;6123918;23;19908;-86
2023/06/11 09:42:34;;;;;;;;;;;;;;;7.53;100.00;99484.81;6122267;23;19956;-86
2023/06/11 09:44:59;;;;;;;;;;;;;;;7.56;100.00;99489.97;6124297;23;19913;-86
2023/06/11 09:47:25;;;;;;;;;;;;;;;7.51;100.00;99482.22;6123854;23;19964;-86
2023/06/11 09:49:51;;;;;;;;;;;;;;;7.51;100.00;99487.50;6124030;23;20352;-86
2023/06/11 09:52:17;;;;;;;;;;;;;;;7.51;100.00;99486.66;6125425;23;19920;-85
2023/06/11 09:54:42;;;;;;;;;;;;;;;7.49;100.00;99484.06;6125305;23;19917;-86
2023/06/11 09:57:08;;;;;;;;;;;;;;;7.50;100.00;99491.06;6122263;23;19996;-86
2023/06/11 09:59:34;;;;;;;;;;;;;;;7.48;100.00;99476.22;6123871;23;19972;-87
2023/06/11 10:02:02;;;;;;;;;;;;;;;7.50;100.00;99484.91;6119741;23;19913;-87
2023/06/11 10:04:27;;;;;;;;;;;;;;;7.51;100.00;99476.94;6123741;23;19944;-87
2023/06/11 10:06:53;;;;;;;;;;;;;;;7.76;100.00;99476.94;6125531;23;20237;-88
2023/06/11 12:30:19;;;;;;;;;;;;;;;7.66;100.00;99435.13;6094642;23;19963;-83
2023/06/11 12:32:45;;;;;;;;;;;;;;;7.70;100.00;99421.78;6096893;23;20250;-84
2023/06/11 12:35:10;;;;;;;;;;;;;;;7.67;100.00;99419.25;6096682;23;19953;-86
2023/06/11 12:37:39;;;;;;;;;;;;;;;7.67;100.00;99418.41;6096664;23;19945;-90
2023/06/11 12:40:05;;;;;;;;;;;;;;;7.68;100.00;99420.13;6119823;23;19940;-87
2023/06/11 12:42:32;;;;;;;;;;;;;;;7.71;100.00;99417.38;6095154;23;20321;-85
2023/06/11 12:45:13;;;;;;;;;;;;;;;7.76;100.00;99420.72;6096945;23;19996;-85
2023/06/11 12:47:39;;;;;;;;;;;;;;;7.75;100.00;99411.91;6119495;23;19936;-85
2023/06/11 12:50:05;;;;;;;;;;;;;;;7.70;100.00;99413.88;6096629;23;19914;-86
2023/06/11 12:52:30;;;;;;;;;;;;;;;7.69;100.00;99401.63;6096536;23;19936;-84
2023/06/11 12:54:55;;;;;;;;;;;;;;;7.70;100.00;99398.03;6096579;23;19956;-83
2023/06/11 12:57:20;;;;;;;;;;;;;;;7.69;100.00;99404.25;6094826;23;20023;-84
2023/06/11 12:59:46;;;;;;;;;;;;;;;7.72;100.00;99398.88;6119349;23;19960;-86
2023/06/11 13:02:12;;;;;;;;;;;;;;;7.77;100.00;99401.31;6119250;23;20341;-84
2023/06/11 13:04:37;;;;;;;;;;;;;;;7.78;100.00;99400.41;6119610;23;19920;-86
2023/06/11 13:07:02;;;;;;;;;;;;;;;7.67;100.00;99400.78;6119442;23;19944;-88
2023/06/11 13:09:28;;;;;;;;;;;;;;;7.63;100.00;99399.22;6096506;23;19935;-87
2023/06/11 13:11:53;;;;;;;;;;;;;;;7.66;100.00;99396.47;6096405;23;19909;-87
2023/06/11 13:14:20;;;;;;;;;;;;;;;7.64;100.00;99383.31;6095397;23;19917;-85
2023/06/11 13:16:45;;;;;;;;;;;;;;;7.63;100.00;99380.75;6095265;23;19921;-85
2023/06/11 13:19:10;;;;;;;;;;;;;;;7.59;100.00;99379.97;6096522;23;20473;-84
2023/06/11 13:21:36;;;;;;;;;;;;;;;7.61;100.00;99372.00;6096564;23;19921;-83
2023/06/11 13:24:02;;;;;;;;;;;;;;;7.60;100.00;99380.84;6096304;23;19917;-86
2023/06/11 13:26:27;;;;;;;;;;;;;;;7.58;100.00;99374.78;6096218;23;20330;-83
2023/06/11 13:28:52;;;;;;;;;;;;;;;7.64;100.00;99371.91;6094672;23;19925;-86
2023/06/11 13:31:18;;;;;;;;;;;;;;;7.70;100.00;99373.47;6096477;23;20360;-86
2023/06/11 13:33:43;;;;;;;;;;;;;;;7.63;100.00;99375.47;6119508;23;19991;-87
2023/06/11 13:36:09;;;;;;;;;;;;;;;7.76;100.00;99375.88;6118811;23;19924;-85
2023/06/11 13:38:35;;;;;;;;;;;;;;;7.62;100.00;99371.09;6096244;23;19913;-84
2023/06/11 13:41:00;;;;;;;;;;;;;;;7.62;100.00;99368.47;6096119;23;20329;-83
2023/06/11 13:43:26;;;;;;;;;;;;;;;7.64;100.00;99371.91;6095024;23;19948;-83
2023/06/11 13:45:53;;;;;;;;;;;;;;;7.67;100.00;99365.66;6096249;23;19917;-87
2023/06/11 13:48:18;;;;;;;;;;;;;;;7.74;100.00;99364.53;6096247;23;20396;-86
2023/06/11 13:50:50;;;;;;;;;;;;;;;7.61;100.00;99366.75;6096338;23;19995;-86
2023/06/11 13:53:16;;;;;;;;;;;;;;;7.60;100.00;99359.75;6118879;23;19941;-86
2023/06/11 13:55:44;;;;;;;;;;;;;;;7.57;100.00;99357.25;6095932;23;20249;-86
2023/06/11 13:58:10;;;;;;;;;;;;;;;7.58;100.00;99357.19;6094718;23;19969;-87
2023/06/11 14:00:35;;;;;;;;;;;;;;;7.55;100.00;99354.66;6096156;23;19913;-83
2023/06/11 14:03:01;;;;;;;;;;;;;;;7.65;100.00;99363.09;6096266;23;19921;-85
2023/06/11 14:05:26;;;;;;;;;;;;;;;7.58;100.00;99361.59;6096180;23;20449;-86
2023/06/11 14:07:53;;;;;;;;;;;;;;;7.55;100.00;99356.44;6119063;23;19917;-83
2023/06/11 14:10:18;;;;;;;;;;;;;;;7.51;100.00;99345.13;6095942;23;19945;-85
2023/06/11 14:12:44;;;;;;;;;;;;;;;7.51;100.00;99352.19;6121978;23;19913;-86
2023/06/11 14:15:09;;;;;;;;;;;;;;;7.48;100.00;99352.31;6124143;23;19913;-87
2023/06/11 14:17:38;;;;;;;;;;;;;;;7.49;100.00;99346.13;6125418;23;19917;-87
2023/06/11 14:20:04;;;;;;;;;;;;;;;7.47;100.00;99343.53;6124156;23;19940;-83
2023/06/11 14:22:29;;;;;;;;;;;;;;;7.49;100.00;99340.84;6125767;23;19924;-83
2023/06/11 14:24:55;;;;;;;;;;;;;;;7.46;100.00;99339.19;6119528;23;19917;-83
2023/06/11 14:27:20;;;;;;;;;;;;;;;7.48;100.00;99333.84;6123787;23;19940;-83
2023/06/11 14:29:45;;;;;;;;;;;;;;;7.50;100.00;99339.91;6123749;23;19927;-83
2023/06/11 14:32:10;;;;;;;;;;;;;;;7.55;100.00;99343.25;6124317;23;19992;-87
2023/06/11 14:34:36;;;;;;;;;;;;;;;7.61;100.00;99341.25;6123670;23;19917;-85
2023/06/11 14:37:01;;;;;;;;;;;;;;;7.56;100.00;99343.22;6125798;23;19917;-85
2023/06/11 14:39:26;;;;;;;;;;;;;;;7.54;100.00;99338.91;6125230;23;19915;-84
2023/06/11 14:41:51;;;;;;;;;;;;;;;7.54;100.00;99338.91;6120635;23;20253;-84
2023/06/11 14:44:17;;;;;;;;;;;;;;;7.52;100.00;99335.47;6124024;23;20313;-85
2023/06/11 14:46:42;;;;;;;;;;;;;;;7.53;100.00;99339.81;6125558;23;19988;-83
2023/06/11 14:49:07;;;;;;;;;;;;;;;7.56;100.00;99337.06;6125595;23;19924;-85
2023/06/11 14:51:32;;;;;;;;;;;;;;;7.56;100.00;99343.22;6127115;23;19909;-83
2023/06/11 14:53:58;;;;;;;;;;;;;;;7.56;100.00;99337.94;6125447;23;20033;-82
2023/06/11 14:56:23;;;;;;;;;;;;;;;7.56;100.00;99337.06;6125347;23;19920;-85
2023/06/11 14:58:49;;;;;;;;;;;;;;;7.57;100.00;99336.16;6123934;23;19913;-83
2023/06/11 15:01:14;;;;;;;;;;;;;;;7.55;100.00;99336.22;6101100;23;19998;-85
2023/06/11 15:03:39;;;;;;;;;;;;;;;7.54;100.00;99325.72;6125536;23;19913;-84
2023/06/11 15:06:07;;;;;;;;;;;;;;;7.54;100.00;99331.84;6127028;23;19944;-83
2023/06/11 15:08:32;;;;;;;;;;;;;;;7.55;100.00;99335.34;6125427;23;19917;-84
2023/06/11 15:10:58;;;;;;;;;;;;;;;7.57;100.00;99330.88;6121033;23;19917;-83
2023/06/11 15:13:23;;;;;;;;;;;;;;;7.51;100.00;99310.84;6123730;23;20317;-84
2023/06/11 15:15:49;;;;;;;;;;;;;;;7.55;100.00;99332.72;6125263;23;20352;-85
2023/06/11 15:18:14;;;;;;;;;;;;;;;7.55;100.00;99330.09;6127175;23;19913;-83
2023/06/11 15:20:40;;;;;;;;;;;;;;;7.57;100.00;99330.88;6126781;23;19919;-83
2023/06/11 15:23:05;;;;;;;;;;;;;;;7.54;100.00;99331.84;6126815;23;19968;-87
2023/06/11 15:25:30;;;;;;;;;;;;;;;7.53;100.00;99321.34;6124965;23;19917;-82
2023/06/11 15:27:55;;;;;;;;;;;;;;;7.52;100.00;99323.13;6125230;23;19916;-82
2023/06/11 15:30:21;;;;;;;;;;;;;;;7.50;100.00;99322.34;6125026;23;19968;-82
2023/06/11 15:32:46;;;;;;;;;;;;;;;7.53;100.00;99326.63;6126804;23;19913;-82
2023/06/11 15:35:11;;;;;;;;;;;;;;;7.49;100.00;99320.63;6125051;23;19916;-82
2023/06/11 15:37:37;;;;;;;;;;;;;;;7.50;100.00;99318.81;6125194;23;19925;-84
2023/06/11 15:40:02;;;;;;;;;;;;;;;7.48;100.00;99323.31;6126557;23;19913;-82
2023/06/11 15:42:27;;;;;;;;;;;;;;;7.48;100.00;99316.25;6123536;23;19917;-84
2023/06/11 15:44:53;;;;;;;;;;;;;;;7.52;100.00;99315.22;6125022;23;19921;-82
2023/06/11 15:47:18;;;;;;;;;;;;;;;7.52;100.00;99319.66;6120605;23;19924;-84
2023/06/11 15:49:43;;;;;;;;;;;;;;;7.53;100.00;99318.72;6125375;23;19920;-85
2023/06/11 15:52:09;;;;;;;;;;;;;;;7.52;100.00;99319.66;6125275;23;20023;-85
2023/06/11 15:54:34;;;;;;;;;;;;;;;7.52;100.00;99320.50;6126568;23;19924;-84
2023/06/11 15:57:00;;;;;;;;;;;;;;;7.52;100.00;99322.28;6126518;23;19917;-83
2023/06/11 15:59:25;;;;;;;;;;;;;;;7.51;100.00;99317.91;6124789;23;20380;-84
2023/06/11 16:01:51;;;;;;;;;;;;;;;7.52;100.00;99307.31;6126462;23;19975;-84
2023/06/11 16:04:16;;;;;;;;;;;;;;;7.53;100.00;99303.78;6124828;23;19924;-85
2023/06/11 16:06:41;;;;;;;;;;;;;;;7.49;100.00;99310.06;6126333;23;20214;-84
2023/06/11 16:09:07;;;;;;;;;;;;;;;7.51;100.00;99304.75;6126323;23;19912;-85
2023/06/11 16:11:34;;;;;;;;;;;;;;;7.57;100.00;99308.00;6126138;23;20362;-85
2023/06/11 16:13:59;;;;;;;;;;;;;;;7.51;100.00;99302.09;6124882;23;20383;-84
2023/06/11 16:16:25;;;;;;;;;;;;;;;7.50;100.00;99298.63;6126135;23;19917;-86
2023/06/11 16:18:50;;;;;;;;;;;;;;;7.47;100.00;99296.09;6126402;23;19923;-82
2023/06/11 16:21:15;;;;;;;;;;;;;;;7.47;100.00;99285.56;6126277;23;19912;-85
2023/06/11 16:23:41;;;;;;;;;;;;;;;7.47;100.00;99293.47;6126363;23;20004;-84
2023/06/11 16:26:06;;;;;;;;;;;;;;;7.48;100.00;99283.75;6126126;23;20241;-84
2023/06/11 16:28:32;;;;;;;;;;;;;;;7.44;100.00;99283.88;6124339;23;19961;-84
2023/06/11 16:31:12;;;;;;;;;;;;;;;7.45;100.00;99282.97;6126257;23;19913;-84
2023/06/11 16:33:37;;;;;;;;;;;;;;;7.54;100.00;99291.44;6126088;23;19945;-84
2023/06/11 16:36:03;;;;;;;;;;;;;;;7.49;100.00;99290.75;6125914;23;19916;-84
2023/06/11 16:38:28;;;;;;;;;;;;;;;7.49;100.00;99283.69;6125940;23;19923;-84
2023/06/11 16:40:53;;;;;;;;;;;;;;;7.44;100.00;99283.88;6124527;23;19948;-83
2023/06/11 16:43:19;;;;;;;;;;;;;;;7.45;100.00;99282.09;6124472;23;20245;-86
2023/06/11 16:45:44;;;;;;;;;;;;;;;7.42;100.00;99275.19;6124472;23;19948;-86
2023/06/11 16:48:09;;;;;;;;;;;;;;;7.48;100.00;99281.13;6125996;23;20341;-84
2023/06/11 16:50:34;;;;;;;;;;;;;;;7.54;100.00;99276.47;6125822;23;19916;-86
2023/06/11 16:53:00;;;;;;;;;;;;;;;7.49;100.00;99274.94;6125834;23;20249;-86
2023/06/11 16:55:25;;;;;;;;;;;;;;;7.49;100.00;99281.06;6125641;23;19949;-87
2023/06/11 16:57:50;;;;;;;;;;;;;;;7.45;100.00;99275.06;6124332;23;19913;-85
2023/06/11 17:00:19;;;;;;;;;;;;;;;7.48;100.00;99271.44;6124362;23;19917;-85
2023/06/11 17:02:46;;;;;;;;;;;;;;;7.49;100.00;99273.16;6149329;23;19917;-85
2023/06/11 17:05:12;;;;;;;;;;;;;;;7.55;100.00;99280.00;6125513;23;19913;-87
2023/06/11 17:07:39;;;;;;;;;;;;;;;7.49;100.00;99282.84;6124416;23;19917;-86
2023/06/11 17:10:04;;;;;;;;;;;;;;;7.53;100.00;99289.72;6125837;23;20293;-87
2023/06/11 17:12:30;;;;;;;;;;;;;;;7.51;100.00;99287.13;6124490;23;20220;-84
2023/06/11 17:14:55;;;;;;;;;;;;;;;7.51;100.00;99281.00;6125726;23;19996;-87
2023/06/11 17:17:20;;;;;;;;;;;;;;;7.50;100.00;99281.91;6125661;23;19913;-83
2023/06/11 17:19:48;;;;;;;;;;;;;;;7.49;100.00;99285.50;6124100;23;19917;-84
2023/06/11 17:22:13;;;;;;;;;;;;;;;7.49;100.00;99277.59;6125564;23;20057;-87
2023/06/11 17:24:39;;;;;;;;;;;;;;;7.47;100.00;99282.91;6125545;23;20311;-84
2023/06/11 17:27:04;;;;;;;;;;;;;;;7.43;100.00;99292.69;6124208;23;20285;-86
2023/06/11 17:29:29;;;;;;;;;;;;;;;7.42;100.00;99288.34;6123817;23;19916;-84
2023/06/11 17:31:54;;;;;;;;;;;;;;;7.45;100.00;99293.50;6124184;23;19943;-83
2023/06/11 17:34:22;;;;;;;;;;;;;;;7.47;100.00;99290.81;6125613;23;19913;-83
2023/06/11 17:36:47;;;;;;;;;;;;;;;7.46;100.00;99289.94;6123928;23;19917;-83
2023/06/11 17:39:13;;;;;;;;;;;;;;;7.50;100.00;99293.34;6119840;23;19988;-84
2023/06/11 17:41:38;;;;;;;;;;;;;;;8.29;100.00;99301.63;6123920;23;19944;-83
2023/06/11 17:44:03;;;;;;;;;;;;;;;7.81;100.00;99300.91;6097977;23;19913;-82
2023/06/11 17:46:28;;;;;;;;;;;;;;;7.67;100.00;99307.66;6121068;23;20403;-85
2023/06/11 17:48:54;;;;;;;;;;;;;;;7.61;100.00;99309.59;6125479;23;19920;-83
2023/06/11 17:51:19;;;;;;;;;;;;;;;7.60;100.00;99317.56;6125390;23;19920;-84
2023/06/11 17:53:44;;;;;;;;;;;;;;;7.58;100.00;99309.72;6123853;23;19921;-84
2023/06/11 17:56:10;;;;;;;;;;;;;;;7.53;100.00;99316.06;6123870;23;19936;-83
2023/06/11 17:58:39;;;;;;;;;;;;;;;7.53;100.00;99319.59;6122220;23;20237;-85
2023/06/11 18:01:05;;;;;;;;;;;;;;;7.49;100.00;99319.75;6123765;23;19992;-83
2023/06/11 18:03:30;;;;;;;;;;;;;;;7.49;100.00;99314.50;6123662;23;19948;-84
2023/06/11 18:05:55;;;;;;;;;;;;;;;7.46;100.00;99320.72;6123816;23;20297;-84
2023/06/11 18:08:20;;;;;;;;;;;;;;;7.48;100.00;99324.16;6125411;23;20239;-83
2023/06/11 18:10:46;;;;;;;;;;;;;;;7.50;100.00;99338.16;6123583;23;20245;-82
2023/06/11 18:13:11;;;;;;;;;;;;;;;7.46;100.00;99332.13;6122455;23;19991;-83
2023/06/11 18:15:39;;;;;;;;;;;;;;;7.48;100.00;99344.41;6124815;23;20666;-83
2023/06/11 18:18:05;;;;;;;;;;;;;;;7.47;100.00;99335.63;6125154;23;19923;-85
2023/06/11 18:20:30;;;;;;;;;;;;;;;7.46;100.00;99333.91;6126651;23;19991;-84
2023/06/11 18:22:56;;;;;;;;;;;;;;;7.46;100.00;99341.81;6118650;23;19912;-82
2023/06/11 18:25:21;;;;;;;;;;;;;;;7.48;100.00;99345.25;6124536;23;20372;-83
2023/06/11 18:27:46;;;;;;;;;;;;;;;7.43;100.00;99342.78;6120881;23;19912;-83
2023/06/11 18:30:11;;;;;;;;;;;;;;;7.47;100.00;99340.91;6125619;23;19929;-84
2023/06/11 18:32:40;;;;;;;;;;;;;;;7.45;100.00;99340.97;6123468;23;19949;-85
2023/06/11 18:35:05;;;;;;;;;;;;;;;7.45;100.00;99340.09;6124301;23;19913;-86
2023/06/11 18:37:30;;;;;;;;;;;;;;;7.44;100.00;99341.88;6125156;23;20003;-83
2023/06/11 18:39:55;;;;;;;;;;;;;;;7.41;100.00;99341.13;6126754;23;19913;-82
2023/06/11 18:42:21;;;;;;;;;;;;;;;7.41;100.00;99338.50;6119717;23;19957;-82
2023/06/11 18:44:46;;;;;;;;;;;;;;;7.38;100.00;99347.38;6125509;23;20322;-84
2023/06/11 18:47:12;;;;;;;;;;;;;;;7.38;100.00;99349.16;6126448;23;19920;-85
2023/06/11 18:49:38;;;;;;;;;;;;;;;7.40;100.00;99345.56;6127050;23;20376;-82
2023/06/11 18:52:04;;;;;;;;;;;;;;;7.38;100.00;99342.09;6125835;23;20344;-83
2023/06/11 18:54:33;;;;;;;;;;;;;;;7.37;100.00;99350.94;6125138;23;19913;-85
2023/06/11 18:56:58;;;;;;;;;;;;;;;7.39;100.00;99350.88;6123574;23;19913;-83
2023/06/11 18:59:23;;;;;;;;;;;;;;;7.38;100.00;99352.63;6125548;23;20344;-84
2023/06/11 19:01:48;;;;;;;;;;;;;;;7.40;100.00;99357.84;6125448;23;20298;-83
2023/06/11 19:04:13;;;;;;;;;;;;;;;7.44;100.00;99357.69;6123733;23;19936;-83
2023/06/11 19:06:39;;;;;;;;;;;;;;;7.42;100.00;99358.69;6149747;23;19913;-83
2023/06/11 19:09:04;;;;;;;;;;;;;;;7.42;100.00;99362.16;6124454;23;20237;-83
2023/06/11 19:11:29;;;;;;;;;;;;;;;7.43;100.00;99363.88;6149071;23;19920;-84
2023/06/11 19:13:56;;;;;;;;;;;;;;;7.45;100.00;99362.06;6148258;23;19920;-83
2023/06/11 19:16:21;;;;;;;;;;;;;;;7.46;100.00;99355.00;6149970;23;19913;-84
2023/06/11 19:18:46;;;;;;;;;;;;;;;7.43;100.00;99363.88;6149302;23;19913;-83
2023/06/11 19:21:12;;;;;;;;;;;;;;;7.44;100.00;99355.06;6122844;23;20385;-83
2023/06/11 19:23:37;;;;;;;;;;;;;;;7.43;100.00;99352.47;6143135;23;19924;-83
2023/06/11 19:26:02;;;;;;;;;;;;;;;7.41;100.00;99357.81;6124888;23;20312;-84
2023/06/11 19:28:27;;;;;;;;;;;;;;;7.41;100.00;99355.16;6148803;23;20222;-83
2023/06/11 19:30:53;;;;;;;;;;;;;;;7.40;100.00;99358.72;6120366;23;19999;-83
2023/06/11 19:33:18;;;;;;;;;;;;;;;7.42;100.00;99351.63;6129073;23;19979;-83
2023/06/11 19:35:43;;;;;;;;;;;;;;;7.41;100.00;99355.16;6154949;23;19913;-83
2023/06/11 19:38:08;;;;;;;;;;;;;;;7.43;100.00;99355.97;6129690;23;20285;-83
2023/06/11 19:40:34;;;;;;;;;;;;;;;7.42;100.00;99356.91;6129701;23;20321;-83
2023/06/11 19:42:59;;;;;;;;;;;;;;;7.42;100.00;99359.53;6128215;23;19967;-83
2023/06/11 19:45:25;;;;;;;;;;;;;;;7.45;100.00;99354.16;6120618;23;19948;-85
2023/06/11 19:47:51;;;;;;;;;;;;;;;7.40;100.00;99357.84;6155057;23;19996;-84
2023/06/11 19:50:20;;;;;;;;;;;;;;;7.40;100.00;99352.59;6155566;23;19964;-83
2023/06/11 19:52:45;;;;;;;;;;;;;;;7.44;100.00;99360.31;6155983;23;20022;-84
2023/06/11 19:55:16;;;;;;;;;;;;;;;7.40;100.00;99357.84;6155934;23;20340;-83
2023/06/11 19:57:41;;;;;;;;;;;;;;;7.38;100.00;99363.19;6127949;23;20043;-84
2023/06/11 20:00:07;;;;;;;;;;;;;;;7.37;100.00;99368.50;6128715;23;19944;-83
2023/06/11 20:02:32;;;;;;;;;;;;;;;7.43;100.00;99363.00;6129840;23;19967;-83
2023/06/11 20:04:57;;;;;;;;;;;;;;;7.34;100.00;99369.50;6130063;23;19913;-83
2023/06/11 20:07:23;;;;;;;;;;;;;;;7.36;100.00;99366.81;6129695;23;19913;-83
2023/06/11 20:09:48;;;;;;;;;;;;;;;7.37;100.00;99364.13;6128788;23;19916;-84
2023/06/11 20:12:13;;;;;;;;;;;;;;;7.34;100.00;99368.63;6128743;23;19912;-83
2023/06/11 20:14:38;;;;;;;;;;;;;;;7.35;100.00;99380.88;6120246;23;19916;-83
2023/06/11 20:17:04;;;;;;;;;;;;;;;7.35;100.00;99370.34;6130130;23;19912;-83
2023/06/11 20:19:29;;;;;;;;;;;;;;;7.36;100.00;99377.34;6155052;23;19913;-83
2023/06/11 20:21:56;;;;;;;;;;;;;;;7.36;100.00;99372.94;6129619;23;19956;-83
2023/06/11 20:24:22;;;;;;;;;;;;;;;7.31;100.00;99377.50;6129639;23;20321;-83
2023/06/11 20:26:47;;;;;;;;;;;;;;;7.33;100.00;99380.09;6129632;23;19955;-83
2023/06/11 20:29:12;;;;;;;;;;;;;;;7.30;100.00;99375.78;6127060;23;19916;-82
2023/06/11 20:31:40;;;;;;;;;;;;;;;7.28;100.00;99381.09;6129654;23;19912;-83
2023/06/11 20:34:06;;;;;;;;;;;;;;;7.33;100.00;99385.38;6120257;23;19920;-84
2023/06/11 20:36:31;;;;;;;;;;;;;;;7.33;100.00;99380.09;6145719;23;19920;-82
2023/06/11 20:38:57;;;;;;;;;;;;;;;7.34;100.00;99373.88;6152738;23;19912;-82
2023/06/11 20:41:22;;;;;;;;;;;;;;;7.34;100.00;99387.94;6152880;23;19947;-82
2023/06/11 20:43:47;;;;;;;;;;;;;;;7.33;100.00;99382.72;6153846;23;20391;-84
2023/06/11 20:46:12;;;;;;;;;;;;;;;7.30;100.00;99383.69;6129471;23;19983;-81
2023/06/11 20:48:38;;;;;;;;;;;;;;;7.32;100.00;99389.75;6120280;23;19919;-81
2023/06/11 20:51:03;;;;;;;;;;;;;;;7.29;100.00;99389.88;6155470;23;19939;-81
2023/06/11 20:53:28;;;;;;;;;;;;;;;7.30;100.00;99393.38;6154919;23;19959;-81
2023/06/11 20:55:56;;;;;;;;;;;;;;;7.29;100.00;99387.22;6154907;23;19920;-82
2023/06/11 20:58:21;;;;;;;;;;;;;;;7.31;100.00;99380.16;6127965;23;19917;-82
2023/06/11 21:00:46;;;;;;;;;;;;;;;7.32;100.00;99379.22;6129181;23;19995;-81
2023/06/11 21:03:12;;;;;;;;;;;;;;;7.29;100.00;99376.69;6145559;23;19913;-83
2023/06/11 21:05:38;;;;;;;;;;;;;;;7.30;100.00;99383.69;6153653;23;19920;-84
2023/06/11 21:08:04;;;;;;;;;;;;;;;7.29;100.00;99376.69;6155617;23;19916;-83
2023/06/11 21:10:29;;;;;;;;;;;;;;;7.29;100.00;99376.69;6154473;23;19916;-83
2023/06/11 21:12:54;;;;;;;;;;;;;;;7.30;100.00;99378.41;6152326;23;19983;-82
2023/06/11 21:15:20;;;;;;;;;;;;;;;7.30;100.00;99378.41;6129250;23;19912;-82
2023/06/11 21:17:45;;;;;;;;;;;;;;;7.31;100.00;99381.91;6146060;23;19913;-83
2023/06/11 21:20:10;;;;;;;;;;;;;;;7.29;100.00;99371.41;6127748;23;19944;-83
2023/06/11 21:22:36;;;;;;;;;;;;;;;7.27;100.00;99367.97;6127998;23;19916;-83
2023/06/11 21:25:01;;;;;;;;;;;;;;;7.29;100.00;99379.31;6121941;23;19921;-83
2023/06/11 21:27:27;;;;;;;;;;;;;;;7.31;100.00;99379.25;6125490;23;20730;-84
2023/06/11 21:29:52;;;;;;;;;;;;;;;7.29;100.00;99379.31;6148268;23;19921;-83
2023/06/11 21:32:17;;;;;;;;;;;;;;;7.27;100.00;99379.41;6153119;23;19983;-84
2023/06/11 21:34:43;;;;;;;;;;;;;;;7.30;100.00;99377.56;6126825;23;19916;-84
2023/06/11 21:37:11;;;;;;;;;;;;;;;7.31;100.00;99381.91;6127578;23;19913;-85
2023/06/11 21:39:36;;;;;;;;;;;;;;;7.28;100.00;99381.09;6127990;23;19913;-84
2023/06/11 21:42:01;;;;;;;;;;;;;;;7.26;100.00;99388.22;6154562;23;19916;-84
2023/06/11 21:44:27;;;;;;;;;;;;;;;7.28;100.00;99389.00;6152276;23;19916;-85
2023/06/11 21:46:52;;;;;;;;;;;;;;;7.25;100.00;99388.28;6127396;23;19913;-83
2023/06/11 21:49:17;;;;;;;;;;;;;;;7.22;100.00;99386.59;6153076;23;19917;-85
2023/06/11 21:51:44;;;;;;;;;;;;;;;7.23;100.00;99385.69;6120202;23;19952;-82
2023/06/11 21:54:10;;;;;;;;;;;;;;;7.28;100.00;99378.47;6154908;23;19916;-84
2023/06/11 21:56:35;;;;;;;;;;;;;;;7.26;100.00;99382.94;6128790;23;19967;-82
2023/06/11 21:59:00;;;;;;;;;;;;;;;7.24;100.00;99389.16;6151412;23;19913;-83
2023/06/11 22:01:26;;;;;;;;;;;;;;;7.28;100.00;99391.66;6126264;23;19917;-83
2023/06/11 22:03:51;;;;;;;;;;;;;;;7.32;100.00;99391.53;6152642;23;19920;-83
2023/06/11 22:06:16;;;;;;;;;;;;;;;7.32;100.00;99392.38;6119035;23;20000;-81
2023/06/11 22:08:42;;;;;;;;;;;;;;;7.32;100.00;99389.75;6155008;23;19916;-83
2023/06/11 22:11:07;;;;;;;;;;;;;;;7.30;100.00;99399.50;6145626;23;19923;-85
2023/06/11 22:13:32;;;;;;;;;;;;;;;7.28;100.00;99401.34;6126446;23;19912;-84
2023/06/11 22:15:58;;;;;;;;;;;;;;;7.28;100.00;99409.25;6152654;23;19912;-82
2023/06/11 22:18:27;;;;;;;;;;;;;;;7.28;100.00;99406.59;6127332;23;19913;-83
2023/06/11 22:20:53;;;;;;;;;;;;;;;7.26;100.00;99404.03;6127904;23;19908;-83
2023/06/11 22:23:18;;;;;;;;;;;;;;;7.28;100.00;99407.47;6119296;23;20343;-82
2023/06/11 22:25:43;;;;;;;;;;;;;;;7.24;100.00;99407.63;6128366;23;19980;-83
2023/06/11 22:28:09;;;;;;;;;;;;;;;7.25;100.00;99401.44;6126853;23;20001;-83
2023/06/11 22:30:34;;;;;;;;;;;;;;;7.27;100.00;99404.88;6118112;23;19924;-84
2023/06/11 22:32:59;;;;;;;;;;;;;;;7.25;100.00;99404.94;6127421;23;19992;-83
2023/06/11 22:35:24;;;;;;;;;;;;;;;7.24;100.00;99410.25;6127199;23;19916;-83
2023/06/11 22:37:50;;;;;;;;;;;;;;;7.23;100.00;99413.81;6153784;23;19924;-85
2023/06/11 22:40:15;;;;;;;;;;;;;;;7.20;100.00;99411.28;6127733;23;19915;-83
2023/06/11 22:42:40;;;;;;;;;;;;;;;7.23;100.00;99419.09;6126631;23;19920;-84